sensor_id;sensor_type;location;lat;lon;timestamp;pressure;altitude;pressure_sealevel;temperature;humidity
16690;BME280;8458;52.220;9.884;2024-03-06T00:02:00;101101.41;;;4.64;94.12
16690;BME280;8458;52.220;9.884;2024-03-06T00:04:27;101116.63;;;4.60;93.59
16690;BME280;8458;52.220;9.884;2024-03-06T00:06:54;101106.06;;;4.57;94.50
16690;BME280;8458;52.220;9.884;2024-03-06T00:09:21;101104.41;;;4.56;94.93
16690;BME280;8458;52.220;9.884;2024-03-06T00:11:48;101110.31;;;4.59;94.76
16690;BME280;8458;52.220;9.884;2024-03-06T00:14:17;101109.69;;;4.57;94.95
16690;BME280;8458;52.220;9.884;2024-03-06T00:16:43;101116.19;;;4.63;94.89
16690;BME280;8458;52.220;9.884;2024-03-06T00:19:10;101115.78;;;4.66;95.15
16690;BME280;8458;52.220;9.884;2024-03-06T00:21:37;101113.03;;;4.66;95.04
16690;BME280;8458;52.220;9.884;2024-03-06T00:24:03;101109.47;;;4.59;94.33
16690;BME280;8458;52.220;9.884;2024-03-06T00:26:30;101121.72;;;4.56;94.23
16690;BME280;8458;52.220;9.884;2024-03-06T00:28:58;101117.50;;;4.54;94.45
16690;BME280;8458;52.220;9.884;2024-03-06T00:31:24;101117.72;;;4.59;94.41
16690;BME280;8458;52.220;9.884;2024-03-06T00:33:50;101118.34;;;4.61;94.78
16690;BME280;8458;52.220;9.884;2024-03-06T00:36:17;101128.28;;;4.62;95.38
16690;BME280;8458;52.220;9.884;2024-03-06T00:38:43;101121.50;;;4.58;95.30
16690;BME280;8458;52.220;9.884;2024-03-06T00:41:10;101127.63;;;4.60;95.02
16690;BME280;8458;52.220;9.884;2024-03-06T00:43:36;101127.41;;;4.61;95.53
16690;BME280;8458;52.220;9.884;2024-03-06T00:46:04;101123.81;;;4.61;95.24
16690;BME280;8458;52.220;9.884;2024-03-06T00:48:30;101133.31;;;4.58;95.59
16690;BME280;8458;52.220;9.884;2024-03-06T00:50:57;101139.03;;;4.57;95.70
16690;BME280;8458;52.220;9.884;2024-03-06T00:53:23;101139.69;;;4.59;96.06
16690;BME280;8458;52.220;9.884;2024-03-06T00:55:50;101140.50;;;4.66;95.64
16690;BME280;8458;52.220;9.884;2024-03-06T00:58:16;101139.44;;;4.67;96.23
16690;BME280;8458;52.220;9.884;2024-03-06T01:00:43;101141.38;;;4.66;95.89
16690;BME280;8458;52.220;9.884;2024-03-06T01:03:11;101140.28;;;4.67;95.93
16690;BME280;8458;52.220;9.884;2024-03-06T01:05:37;101143.47;;;4.71;96.00
16690;BME280;8458;52.220;9.884;2024-03-06T01:08:04;101146.63;;;4.75;95.93
16690;BME280;8458;52.220;9.884;2024-03-06T01:10:30;101144.94;;;4.67;96.08
16690;BME280;8458;52.220;9.884;2024-03-06T01:12:57;101150.44;;;4.67;96.24
16690;BME280;8458;52.220;9.884;2024-03-06T01:15:23;101158.88;;;4.72;96.35
16690;BME280;8458;52.220;9.884;2024-03-06T01:17:50;101160.56;;;4.73;95.71
16690;BME280;8458;52.220;9.884;2024-03-06T01:20:18;101157.63;;;4.68;95.51
16690;BME280;8458;52.220;9.884;2024-03-06T01:22:45;101164.81;;;4.69;95.96
16690;BME280;8458;52.220;9.884;2024-03-06T01:25:11;101158.69;;;4.67;95.97
16690;BME280;8458;52.220;9.884;2024-03-06T01:27:38;101159.72;;;4.66;96.53
16690;BME280;8458;52.220;9.884;2024-03-06T01:30:06;101154.25;;;4.66;96.99
16690;BME280;8458;52.220;9.884;2024-03-06T01:32:33;101162.69;;;4.64;97.18
16690;BME280;8458;52.220;9.884;2024-03-06T01:34:59;101164.38;;;4.65;96.87
16690;BME280;8458;52.220;9.884;2024-03-06T01:37:27;101163.13;;;4.68;96.77
16690;BME280;8458;52.220;9.884;2024-03-06T01:39:53;101159.94;;;4.71;96.75
16690;BME280;8458;52.220;9.884;2024-03-06T01:42:20;101164.81;;;4.76;97.11
16690;BME280;8458;52.220;9.884;2024-03-06T01:44:46;101171.56;;;4.73;97.31
16690;BME280;8458;52.220;9.884;2024-03-06T01:47:13;101165.03;;;4.74;97.77
16690;BME280;8458;52.220;9.884;2024-03-06T01:49:39;101173.25;;;4.74;97.66
16690;BME280;8458;52.220;9.884;2024-03-06T01:52:09;101177.25;;;4.78;97.42
16690;BME280;8458;52.220;9.884;2024-03-06T01:54:39;101183.19;;;4.75;97.35
16690;BME280;8458;52.220;9.884;2024-03-06T01:57:08;101179.19;;;4.71;97.58
16690;BME280;8458;52.220;9.884;2024-03-06T01:59:34;101171.16;;;4.70;98.50
16690;BME280;8458;52.220;9.884;2024-03-06T02:02:01;101178.53;;;4.76;97.84
16690;BME280;8458;52.220;9.884;2024-03-06T02:04:28;101182.13;;;4.76;97.69
16690;BME280;8458;52.220;9.884;2024-03-06T02:06:56;101174.94;;;4.75;97.54
16690;BME280;8458;52.220;9.884;2024-03-06T02:09:23;101176.63;;;4.76;97.47
16690;BME280;8458;52.220;9.884;2024-03-06T02:11:51;101181.94;;;4.71;97.69
16690;BME280;8458;52.220;9.884;2024-03-06T02:14:17;101177.91;;;4.74;97.95
16690;BME280;8458;52.220;9.884;2024-03-06T02:16:44;101177.06;;;4.73;98.03
16690;BME280;8458;52.220;9.884;2024-03-06T02:19:10;101183.59;;;4.72;98.35
16690;BME280;8458;52.220;9.884;2024-03-06T02:21:38;101187.22;;;4.73;98.61
16690;BME280;8458;52.220;9.884;2024-03-06T02:24:04;101186.34;;;4.72;98.57
16690;BME280;8458;52.220;9.884;2024-03-06T02:26:31;101188.03;;;4.73;98.96
16690;BME280;8458;52.220;9.884;2024-03-06T02:28:57;101190.16;;;4.78;98.89
16690;BME280;8458;52.220;9.884;2024-03-06T02:31:24;101191.22;;;4.83;98.25
16690;BME280;8458;52.220;9.884;2024-03-06T02:33:50;101182.53;;;4.80;98.55
16690;BME280;8458;52.220;9.884;2024-03-06T02:36:17;101187.19;;;4.79;98.31
16690;BME280;8458;52.220;9.884;2024-03-06T02:38:45;101189.31;;;4.77;98.19
16690;BME280;8458;52.220;9.884;2024-03-06T02:41:12;101190.56;;;4.81;97.43
16690;BME280;8458;52.220;9.884;2024-03-06T02:43:41;101191.84;;;4.79;97.55
16690;BME280;8458;52.220;9.884;2024-03-06T02:46:07;101190.38;;;4.76;97.92
16690;BME280;8458;52.220;9.884;2024-03-06T02:48:34;101188.03;;;4.80;98.14
16690;BME280;8458;52.220;9.884;2024-03-06T02:51:01;101192.91;;;4.78;98.11
16690;BME280;8458;52.220;9.884;2024-03-06T02:53:28;101192.69;;;4.79;97.50
16690;BME280;8458;52.220;9.884;2024-03-06T02:55:55;101194.81;;;4.77;96.93
16690;BME280;8458;52.220;9.884;2024-03-06T02:58:22;101189.09;;;4.72;97.21
16690;BME280;8458;52.220;9.884;2024-03-06T03:00:48;101196.91;;;4.75;97.45
16690;BME280;8458;52.220;9.884;2024-03-06T03:03:15;101194.38;;;4.74;97.59
16690;BME280;8458;52.220;9.884;2024-03-06T03:05:41;101191.22;;;4.70;98.26
16690;BME280;8458;52.220;9.884;2024-03-06T03:08:07;101189.31;;;4.77;97.77
16690;BME280;8458;52.220;9.884;2024-03-06T03:10:34;101191.19;;;4.77;97.72
16690;BME280;8458;52.220;9.884;2024-03-06T03:13:02;101201.97;;;4.78;97.36
16690;BME280;8458;52.220;9.884;2024-03-06T03:15:30;101193.94;;;4.77;97.55
16690;BME280;8458;52.220;9.884;2024-03-06T03:17:57;101205.81;;;4.77;97.68
16690;BME280;8458;52.220;9.884;2024-03-06T03:20:23;101202.41;;;4.75;97.70
16690;BME280;8458;52.220;9.884;2024-03-06T03:22:50;101204.09;;;4.76;97.52
16690;BME280;8458;52.220;9.884;2024-03-06T03:25:17;101203.50;;;4.74;97.90
16690;BME280;8458;52.220;9.884;2024-03-06T03:27:43;101208.53;;;4.71;98.11
16690;BME280;8458;52.220;9.884;2024-03-06T03:30:11;101207.09;;;4.68;98.15
16690;BME280;8458;52.220;9.884;2024-03-06T03:32:38;101213.84;;;4.65;98.39
16690;BME280;8458;52.220;9.884;2024-03-06T03:35:05;101215.09;;;4.63;98.66
16690;BME280;8458;52.220;9.884;2024-03-06T03:37:31;101213.44;;;4.62;98.89
16690;BME280;8458;52.220;9.884;2024-03-06T03:39:58;101217.63;;;4.64;98.91
16690;BME280;8458;52.220;9.884;2024-03-06T03:42:24;101224.63;;;4.67;98.86
16690;BME280;8458;52.220;9.884;2024-03-06T03:44:51;101218.94;;;4.62;98.72
16690;BME280;8458;52.220;9.884;2024-03-06T03:47:19;101219.13;;;4.67;98.43
16690;BME280;8458;52.220;9.884;2024-03-06T03:49:45;101224.00;;;4.65;98.30
16690;BME280;8458;52.220;9.884;2024-03-06T03:52:12;101222.28;;;4.64;98.32
16690;BME280;8458;52.220;9.884;2024-03-06T03:54:39;101227.78;;;4.64;98.41
16690;BME280;8458;52.220;9.884;2024-03-06T03:57:06;101224.63;;;4.67;97.91
16690;BME280;8458;52.220;9.884;2024-03-06T03:59:33;101229.03;;;4.61;98.05
16690;BME280;8458;52.220;9.884;2024-03-06T04:02:00;101235.84;;;4.59;98.90
16690;BME280;8458;52.220;9.884;2024-03-06T04:04:28;101225.47;;;4.61;98.61
16690;BME280;8458;52.220;9.884;2024-03-06T04:06:54;101227.56;;;4.65;98.34
16690;BME280;8458;52.220;9.884;2024-03-06T04:09:24;101230.13;;;4.60;98.26
16690;BME280;8458;52.220;9.884;2024-03-06T04:11:51;101231.59;;;4.70;98.41
16690;BME280;8458;52.220;9.884;2024-03-06T04:14:17;101229.06;;;4.68;98.54
16690;BME280;8458;52.220;9.884;2024-03-06T04:16:45;101231.16;;;4.66;98.15
16690;BME280;8458;52.220;9.884;2024-03-06T04:19:11;101235.81;;;4.65;98.45
16690;BME280;8458;52.220;9.884;2024-03-06T04:21:42;101241.72;;;4.69;97.39
16690;BME280;8458;52.220;9.884;2024-03-06T04:24:08;101239.63;;;4.64;97.63
16690;BME280;8458;52.220;9.884;2024-03-06T04:26:35;101234.97;;;4.65;97.00
16690;BME280;8458;52.220;9.884;2024-03-06T04:29:01;101248.28;;;4.61;97.57
16690;BME280;8458;52.220;9.884;2024-03-06T04:31:28;101249.34;;;4.60;97.41
16690;BME280;8458;52.220;9.884;2024-03-06T04:33:54;101257.38;;;4.62;97.81
16690;BME280;8458;52.220;9.884;2024-03-06T04:36:21;101250.19;;;4.61;97.92
16690;BME280;8458;52.220;9.884;2024-03-06T04:38:48;101256.31;;;4.63;98.45
16690;BME280;8458;52.220;9.884;2024-03-06T04:41:18;101263.69;;;4.69;97.94
16690;BME280;8458;52.220;9.884;2024-03-06T04:43:44;101267.53;;;4.68;97.82
16690;BME280;8458;52.220;9.884;2024-03-06T04:46:12;101265.41;;;4.70;97.49
16690;BME280;8458;52.220;9.884;2024-03-06T04:48:39;101269.63;;;4.66;97.66
16690;BME280;8458;52.220;9.884;2024-03-06T04:51:05;101271.31;;;4.67;97.67
16690;BME280;8458;52.220;9.884;2024-03-06T04:53:32;101273.44;;;4.65;97.90
16690;BME280;8458;52.220;9.884;2024-03-06T04:55:59;101274.69;;;4.69;97.81
16690;BME280;8458;52.220;9.884;2024-03-06T04:58:26;101281.25;;;4.68;97.97
16690;BME280;8458;52.220;9.884;2024-03-06T05:00:52;101286.97;;;4.66;98.05
16690;BME280;8458;52.220;9.884;2024-03-06T05:03:19;101285.69;;;4.69;98.35
16690;BME280;8458;52.220;9.884;2024-03-06T05:05:45;101286.53;;;4.70;97.95
16690;BME280;8458;52.220;9.884;2024-03-06T05:08:12;101282.31;;;4.67;97.76
16690;BME280;8458;52.220;9.884;2024-03-06T05:10:38;101290.75;;;4.72;97.29
16690;BME280;8458;52.220;9.884;2024-03-06T05:13:06;101287.38;;;4.70;96.66
16690;BME280;8458;52.220;9.884;2024-03-06T05:15:34;101284.63;;;4.70;96.57
16690;BME280;8458;52.220;9.884;2024-03-06T05:18:00;101297.97;;;4.66;97.22
16690;BME280;8458;52.220;9.884;2024-03-06T05:20:28;101293.31;;;4.67;97.87
16690;BME280;8458;52.220;9.884;2024-03-06T05:22:56;101292.69;;;4.65;98.32
16690;BME280;8458;52.220;9.884;2024-03-06T05:25:22;101297.94;;;4.60;98.87
16690;BME280;8458;52.220;9.884;2024-03-06T05:27:49;101290.78;;;4.59;99.35
16690;BME280;8458;52.220;9.884;2024-03-06T05:30:17;101293.28;;;4.54;99.70
16690;BME280;8458;52.220;9.884;2024-03-06T05:32:44;101297.69;;;4.41;100.00
16690;BME280;8458;52.220;9.884;2024-03-06T05:35:12;101299.63;;;4.47;100.00
16690;BME280;8458;52.220;9.884;2024-03-06T05:37:38;101297.53;;;4.49;100.00
16690;BME280;8458;52.220;9.884;2024-03-06T05:40:06;101301.09;;;4.50;100.00
16690;BME280;8458;52.220;9.884;2024-03-06T05:42:34;101301.72;;;4.52;100.00
16690;BME280;8458;52.220;9.884;2024-03-06T05:45:00;101309.75;;;4.54;100.00
16690;BME280;8458;52.220;9.884;2024-03-06T05:47:31;101314.84;;;4.50;100.00
16690;BME280;8458;52.220;9.884;2024-03-06T05:49:58;101319.06;;;4.53;100.00
16690;BME280;8458;52.220;9.884;2024-03-06T05:52:24;101320.97;;;4.52;100.00
16690;BME280;8458;52.220;9.884;2024-03-06T05:54:50;101322.88;;;4.52;100.00
16690;BME280;8458;52.220;9.884;2024-03-06T05:57:17;101329.41;;;4.51;100.00
16690;BME280;8458;52.220;9.884;2024-03-06T05:59:43;101324.31;;;4.47;100.00
16690;BME280;8458;52.220;9.884;2024-03-06T06:02:10;101332.56;;;4.47;100.00
16690;BME280;8458;52.220;9.884;2024-03-06T06:04:37;101327.50;;;4.44;100.00
16690;BME280;8458;52.220;9.884;2024-03-06T06:07:04;101341.63;;;4.41;100.00
16690;BME280;8458;52.220;9.884;2024-03-06T06:09:31;101337.63;;;4.37;100.00
16690;BME280;8458;52.220;9.884;2024-03-06T06:11:58;101340.38;;;4.37;100.00
16690;BME280;8458;52.220;9.884;2024-03-06T06:14:25;101342.69;;;4.34;100.00
16690;BME280;8458;52.220;9.884;2024-03-06T06:16:52;101347.34;;;4.33;100.00
16690;BME280;8458;52.220;9.884;2024-03-06T06:19:19;101348.59;;;4.30;100.00
16690;BME280;8458;52.220;9.884;2024-03-06T06:21:46;101351.13;;;4.32;100.00
16690;BME280;8458;52.220;9.884;2024-03-06T06:24:13;101355.34;;;4.28;100.00
16690;BME280;8458;52.220;9.884;2024-03-06T06:26:39;101364.22;;;4.30;100.00
16690;BME280;8458;52.220;9.884;2024-03-06T06:29:07;101362.53;;;4.29;100.00
16690;BME280;8458;52.220;9.884;2024-03-06T06:31:33;101366.53;;;4.26;100.00
16690;BME280;8458;52.220;9.884;2024-03-06T06:34:00;101369.72;;;4.30;100.00
16690;BME280;8458;52.220;9.884;2024-03-06T06:36:26;101367.59;;;4.32;100.00
16690;BME280;8458;52.220;9.884;2024-03-06T06:38:54;101383.44;;;4.30;99.75
16690;BME280;8458;52.220;9.884;2024-03-06T06:41:21;101384.06;;;4.32;99.64
16690;BME280;8458;52.220;9.884;2024-03-06T06:43:49;101378.38;;;4.34;99.54
16690;BME280;8458;52.220;9.884;2024-03-06T06:46:16;101385.38;;;4.36;99.63
16690;BME280;8458;52.220;9.884;2024-03-06T06:48:43;101396.78;;;4.40;100.00
16690;BME280;8458;52.220;9.884;2024-03-06T06:51:10;101389.63;;;4.45;100.00
16690;BME280;8458;52.220;9.884;2024-03-06T06:53:39;101398.50;;;4.47;100.00
16690;BME280;8458;52.220;9.884;2024-03-06T06:56:08;101411.59;;;4.45;100.00
16690;BME280;8458;52.220;9.884;2024-03-06T06:58:34;101406.97;;;4.53;100.00
16690;BME280;8458;52.220;9.884;2024-03-06T07:01:01;101420.72;;;4.53;100.00
16690;BME280;8458;52.220;9.884;2024-03-06T07:03:29;101417.13;;;4.59;99.90
16690;BME280;8458;52.220;9.884;2024-03-06T07:05:55;101420.09;;;4.64;99.40
16690;BME280;8458;52.220;9.884;2024-03-06T07:08:22;101422.63;;;4.65;99.11
16690;BME280;8458;52.220;9.884;2024-03-06T07:10:49;101419.47;;;4.62;98.82
16690;BME280;8458;52.220;9.884;2024-03-06T07:13:17;101431.09;;;4.64;98.69
16690;BME280;8458;52.220;9.884;2024-03-06T07:15:44;101428.75;;;4.61;98.95
16690;BME280;8458;52.220;9.884;2024-03-06T07:18:10;101425.19;;;4.67;98.69
16690;BME280;8458;52.220;9.884;2024-03-06T07:20:39;101425.81;;;4.69;98.32
16690;BME280;8458;52.220;9.884;2024-03-06T07:23:06;101426.00;;;4.67;98.58
16690;BME280;8458;52.220;9.884;2024-03-06T07:25:32;101426.47;;;4.71;98.06
16690;BME280;8458;52.220;9.884;2024-03-06T07:27:59;101434.91;;;4.76;97.83
16690;BME280;8458;52.220;9.884;2024-03-06T07:30:27;101435.34;;;4.73;97.20
16690;BME280;8458;52.220;9.884;2024-03-06T07:32:54;101440.41;;;4.76;97.18
16690;BME280;8458;52.220;9.884;2024-03-06T07:35:22;101443.38;;;4.81;98.02
16690;BME280;8458;52.220;9.884;2024-03-06T07:37:49;101446.38;;;4.87;98.11
16690;BME280;8458;52.220;9.884;2024-03-06T07:40:16;101447.84;;;4.89;97.50
16690;BME280;8458;52.220;9.884;2024-03-06T07:42:42;101456.94;;;4.90;97.09
16690;BME280;8458;52.220;9.884;2024-03-06T07:45:09;101459.03;;;4.88;97.83
16690;BME280;8458;52.220;9.884;2024-03-06T07:47:37;101463.47;;;4.89;97.44
16690;BME280;8458;52.220;9.884;2024-03-06T07:50:04;101469.19;;;4.87;97.82
16690;BME280;8458;52.220;9.884;2024-03-06T07:52:33;101467.69;;;4.84;97.26
16690;BME280;8458;52.220;9.884;2024-03-06T07:54:59;101478.91;;;4.83;97.48
16690;BME280;8458;52.220;9.884;2024-03-06T07:57:26;101481.84;;;4.81;98.28
16690;BME280;8458;52.220;9.884;2024-03-06T07:59:53;101476.34;;;4.81;98.38
16690;BME280;8458;52.220;9.884;2024-03-06T08:02:20;101479.72;;;4.77;98.17
16690;BME280;8458;52.220;9.884;2024-03-06T08:04:48;101484.16;;;4.71;97.97
16690;BME280;8458;52.220;9.884;2024-03-06T08:07:14;101480.13;;;4.67;97.95
16690;BME280;8458;52.220;9.884;2024-03-06T08:09:40;101492.38;;;4.64;98.43
16690;BME280;8458;52.220;9.884;2024-03-06T08:12:08;101486.88;;;4.64;99.01
16690;BME280;8458;52.220;9.884;2024-03-06T08:14:35;101494.91;;;4.66;99.50
16690;BME280;8458;52.220;9.884;2024-03-06T08:17:01;101497.44;;;4.67;100.00
16690;BME280;8458;52.220;9.884;2024-03-06T08:19:28;101497.84;;;4.64;99.47
16690;BME280;8458;52.220;9.884;2024-03-06T08:21:56;101499.97;;;4.62;99.82
16690;BME280;8458;52.220;9.884;2024-03-06T08:24:22;101507.19;;;4.70;100.00
16690;BME280;8458;52.220;9.884;2024-03-06T08:26:49;101505.28;;;4.71;99.56
16690;BME280;8458;52.220;9.884;2024-03-06T08:29:15;101507.19;;;4.70;99.09
16690;BME280;8458;52.220;9.884;2024-03-06T08:31:42;101510.13;;;4.69;99.06
16690;BME280;8458;52.220;9.884;2024-03-06T08:34:08;101519.63;;;4.66;99.42
16690;BME280;8458;52.220;9.884;2024-03-06T08:36:35;101528.34;;;4.70;99.68
16690;BME280;8458;52.220;9.884;2024-03-06T08:39:03;101525.38;;;4.71;99.94
16690;BME280;8458;52.220;9.884;2024-03-06T08:41:30;101529.59;;;4.74;100.00
16690;BME280;8458;52.220;9.884;2024-03-06T08:43:57;101532.13;;;4.75;100.00
16690;BME280;8458;52.220;9.884;2024-03-06T08:46:23;101542.31;;;4.81;100.00
16690;BME280;8458;52.220;9.884;2024-03-06T08:48:50;101536.19;;;4.86;100.00
16690;BME280;8458;52.220;9.884;2024-03-06T08:51:16;101540.84;;;4.85;99.54
16690;BME280;8458;52.220;9.884;2024-03-06T08:53:42;101544.22;;;4.88;99.45
16690;BME280;8458;52.220;9.884;2024-03-06T08:56:10;101545.72;;;4.83;99.74
16690;BME280;8458;52.220;9.884;2024-03-06T08:58:37;101548.69;;;4.89;99.40
16690;BME280;8458;52.220;9.884;2024-03-06T09:01:03;101554.59;;;4.85;98.90
16690;BME280;8458;52.220;9.884;2024-03-06T09:03:30;101544.00;;;4.82;98.90
16690;BME280;8458;52.220;9.884;2024-03-06T09:05:56;101557.34;;;4.85;99.88
16690;BME280;8458;52.220;9.884;2024-03-06T09:08:23;101553.34;;;4.88;99.81
16690;BME280;8458;52.220;9.884;2024-03-06T09:10:49;101552.94;;;4.91;99.12
16690;BME280;8458;52.220;9.884;2024-03-06T09:13:17;101559.28;;;4.92;99.43
16690;BME280;8458;52.220;9.884;2024-03-06T09:15:43;101560.09;;;4.92;99.40
16690;BME280;8458;52.220;9.884;2024-03-06T09:18:10;101566.06;;;4.96;99.29
16690;BME280;8458;52.220;9.884;2024-03-06T09:20:36;101567.72;;;4.90;100.00
16690;BME280;8458;52.220;9.884;2024-03-06T09:23:03;101576.22;;;5.02;100.00
16690;BME280;8458;52.220;9.884;2024-03-06T09:25:29;101577.06;;;5.02;100.00
16690;BME280;8458;52.220;9.884;2024-03-06T09:27:56;101574.53;;;5.08;99.98
16690;BME280;8458;52.220;9.884;2024-03-06T09:30:24;101578.78;;;5.03;100.00
16690;BME280;8458;52.220;9.884;2024-03-06T09:32:50;101580.91;;;5.08;99.97
16690;BME280;8458;52.220;9.884;2024-03-06T09:35:17;101579.19;;;5.07;100.00
16690;BME280;8458;52.220;9.884;2024-03-06T09:37:45;101586.63;;;5.13;100.00
16690;BME280;8458;52.220;9.884;2024-03-06T09:40:19;101591.31;;;5.26;100.00
16690;BME280;8458;52.220;9.884;2024-03-06T09:42:46;101587.94;;;5.31;100.00
16690;BME280;8458;52.220;9.884;2024-03-06T09:45:13;101587.94;;;5.31;100.00
16690;BME280;8458;52.220;9.884;2024-03-06T09:47:42;101588.16;;;5.36;100.00
16690;BME280;8458;52.220;9.884;2024-03-06T09:50:09;101593.22;;;5.39;100.00
16690;BME280;8458;52.220;9.884;2024-03-06T09:52:36;101590.72;;;5.44;99.90
16690;BME280;8458;52.220;9.884;2024-03-06T09:55:03;101596.22;;;5.44;100.00
16690;BME280;8458;52.220;9.884;2024-03-06T09:57:30;101601.94;;;5.49;100.00
16690;BME280;8458;52.220;9.884;2024-03-06T09:59:57;101603.84;;;5.55;100.00
16690;BME280;8458;52.220;9.884;2024-03-06T10:02:30;101601.31;;;5.61;99.67
16690;BME280;8458;52.220;9.884;2024-03-06T10:05:03;101600.06;;;5.70;100.00
16690;BME280;8458;52.220;9.884;2024-03-06T10:07:30;101600.91;;;5.77;100.00
16690;BME280;8458;52.220;9.884;2024-03-06T10:09:57;101594.16;;;5.86;99.77
16690;BME280;8458;52.220;9.884;2024-03-06T10:12:23;101600.94;;;5.90;98.96
16690;BME280;8458;52.220;9.884;2024-03-06T10:14:50;101602.19;;;5.95;98.25
16690;BME280;8458;52.220;9.884;2024-03-06T10:17:21;101604.78;;;6.03;97.84
16690;BME280;8458;52.220;9.884;2024-03-06T10:19:48;101607.75;;;6.08;97.29
16690;BME280;8458;52.220;9.884;2024-03-06T10:22:18;101600.53;;;6.07;97.91
16690;BME280;8458;52.220;9.884;2024-03-06T10:24:45;101606.03;;;6.14;94.39
16690;BME280;8458;52.220;9.884;2024-03-06T10:27:14;101618.31;;;6.18;91.53
16690;BME280;8458;52.220;9.884;2024-03-06T10:29:41;101614.91;;;6.22;89.43
16690;BME280;8458;52.220;9.884;2024-03-06T10:32:08;101610.25;;;6.30;88.13
16690;BME280;8458;52.220;9.884;2024-03-06T10:34:36;101616.19;;;6.40;88.81
16690;BME280;8458;52.220;9.884;2024-03-06T10:37:03;101617.88;;;6.41;87.18
16690;BME280;8458;52.220;9.884;2024-03-06T10:39:33;101623.16;;;6.49;87.13
16690;BME280;8458;52.220;9.884;2024-03-06T10:42:02;101625.06;;;6.55;85.57
16690;BME280;8458;52.220;9.884;2024-03-06T10:44:32;101629.06;;;6.59;84.55
16690;BME280;8458;52.220;9.884;2024-03-06T10:47:01;101627.16;;;6.67;84.07
16690;BME280;8458;52.220;9.884;2024-03-06T10:49:28;101619.50;;;6.69;85.24
16690;BME280;8458;52.220;9.884;2024-03-06T10:51:57;101622.44;;;6.74;86.28
16690;BME280;8458;52.220;9.884;2024-03-06T10:54:26;101628.38;;;6.84;86.05
16690;BME280;8458;52.220;9.884;2024-03-06T10:56:54;101621.97;;;6.90;85.23
16690;BME280;8458;52.220;9.884;2024-03-06T10:59:24;101628.34;;;6.97;84.51
16690;BME280;8458;52.220;9.884;2024-03-06T11:01:53;101626.84;;;6.95;83.87
16690;BME280;8458;52.220;9.884;2024-03-06T11:04:20;101625.75;;;7.03;83.80
16690;BME280;8458;52.220;9.884;2024-03-06T11:06:47;101626.59;;;7.03;82.20
16690;BME280;8458;52.220;9.884;2024-03-06T11:09:14;101622.75;;;7.11;82.39
16690;BME280;8458;52.220;9.884;2024-03-06T11:11:47;101624.44;;;7.12;80.90
16690;BME280;8458;52.220;9.884;2024-03-06T11:14:15;101628.47;;;7.16;79.62
16690;BME280;8458;52.220;9.884;2024-03-06T11:17:01;101636.31;;;7.19;79.24
16690;BME280;8458;52.220;9.884;2024-03-06T11:19:28;101633.13;;;7.15;77.83
16690;BME280;8458;52.220;9.884;2024-03-06T11:21:55;101637.75;;;7.22;77.42
16690;BME280;8458;52.220;9.884;2024-03-06T11:24:22;101633.97;;;7.16;78.37
16690;BME280;8458;52.220;9.884;2024-03-06T11:26:50;101630.34;;;7.22;77.29
16690;BME280;8458;52.220;9.884;2024-03-06T11:29:23;101637.97;;;7.27;76.95
16690;BME280;8458;52.220;9.884;2024-03-06T11:32:05;101637.75;;;7.28;76.28
16690;BME280;8458;52.220;9.884;2024-03-06T11:34:36;101634.09;;;7.34;76.29
16690;BME280;8458;52.220;9.884;2024-03-06T11:37:04;101626.44;;;7.36;75.91
16690;BME280;8458;52.220;9.884;2024-03-06T11:39:36;101635.78;;;7.35;74.98
16690;BME280;8458;52.220;9.884;2024-03-06T11:42:03;101640.03;;;7.38;75.46
16690;BME280;8458;52.220;9.884;2024-03-06T11:44:35;101640.88;;;7.39;75.73
16690;BME280;8458;52.220;9.884;2024-03-06T11:47:02;101640.88;;;7.39;74.59
16690;BME280;8458;52.220;9.884;2024-03-06T11:49:30;101637.03;;;7.40;74.75
16690;BME280;8458;52.220;9.884;2024-03-06T11:52:00;101637.47;;;7.36;74.32
16690;BME280;8458;52.220;9.884;2024-03-06T11:54:27;101636.38;;;7.44;74.94
16690;BME280;8458;52.220;9.884;2024-03-06T11:56:55;101645.28;;;7.46;75.06
16690;BME280;8458;52.220;9.884;2024-03-06T11:59:22;101642.72;;;7.51;74.76
16690;BME280;8458;52.220;9.884;2024-03-06T12:01:51;101636.75;;;7.54;74.21
16690;BME280;8458;52.220;9.884;2024-03-06T12:04:19;101641.19;;;7.56;74.62
16690;BME280;8458;52.220;9.884;2024-03-06T12:06:45;101646.03;;;7.60;74.45
16690;BME280;8458;52.220;9.884;2024-03-06T12:09:12;101643.03;;;7.68;74.74
16690;BME280;8458;52.220;9.884;2024-03-06T12:11:38;101643.66;;;7.70;74.56
16690;BME280;8458;52.220;9.884;2024-03-06T12:14:05;101649.19;;;7.70;75.48
16690;BME280;8458;52.220;9.884;2024-03-06T12:16:31;101649.63;;;7.67;74.89
16690;BME280;8458;52.220;9.884;2024-03-06T12:18:59;101646.88;;;7.67;74.53
16690;BME280;8458;52.220;9.884;2024-03-06T12:21:28;101643.66;;;7.70;73.47
16690;BME280;8458;52.220;9.884;2024-03-06T12:24:02;101643.28;;;7.67;73.36
16690;BME280;8458;52.220;9.884;2024-03-06T12:26:29;101651.78;;;7.59;74.08
16690;BME280;8458;52.220;9.884;2024-03-06T12:29:04;101645.81;;;7.62;75.03
16690;BME280;8458;52.220;9.884;2024-03-06T12:31:31;101655.16;;;7.67;75.27
16690;BME280;8458;52.220;9.884;2024-03-06T12:34:01;101651.88;;;7.77;74.44
16690;BME280;8458;52.220;9.884;2024-03-06T12:36:28;101643.16;;;7.80;74.17
16690;BME280;8458;52.220;9.884;2024-03-06T12:38:56;101653.38;;;7.80;74.47
16690;BME280;8458;52.220;9.884;2024-03-06T12:41:24;101651.22;;;7.82;74.04
16690;BME280;8458;52.220;9.884;2024-03-06T12:43:53;101648.28;;;7.77;74.01
16690;BME280;8458;52.220;9.884;2024-03-06T12:46:19;101644.91;;;7.75;74.87
16690;BME280;8458;52.220;9.884;2024-03-06T12:48:46;101645.25;;;7.85;74.50
16690;BME280;8458;52.220;9.884;2024-03-06T12:51:14;101639.28;;;7.88;73.61
16690;BME280;8458;52.220;9.884;2024-03-06T12:53:40;101641.16;;;7.94;74.10
16690;BME280;8458;52.220;9.884;2024-03-06T12:56:07;101640.09;;;7.95;73.51
16690;BME280;8458;52.220;9.884;2024-03-06T12:58:35;101639.00;;;7.96;74.00
16690;BME280;8458;52.220;9.884;2024-03-06T13:01:01;101637.88;;;8.04;73.14
16690;BME280;8458;52.220;9.884;2024-03-06T13:03:28;101643.81;;;8.07;73.18
16690;BME280;8458;52.220;9.884;2024-03-06T13:05:54;101637.41;;;8.14;72.98
16690;BME280;8458;52.220;9.884;2024-03-06T13:08:22;101639.97;;;8.08;72.76
16690;BME280;8458;52.220;9.884;2024-03-06T13:10:49;101639.28;;;8.13;72.57